Private Wetterstation Wechselburg
Wetterdaten: Samstag, 20.10.2012
Datum Zeit Temp. +2m Bodentemp. Temp.+5cm Temp. Wind Windchill X Diff Temp. Feuchte +2m Feuchte +5cm Sonnenschein Luftdruck Regen Wind Richtung Richtung Sonnenschein UV Taupunkt Windchill Windben
20.10.2012 00:00 6,9 C 16,9 C 8,1 C 7,3 C 7,3 C 0,4 C 88 % 90 % 0 % 1016,6 hPa 0,0 l/m 0,0 km/h (0 Bft) W-SW 247 0 min 0,0 UV-I 5,1 C 7,3 C 0,0 km/h (0 Bft)
20.10.2012 00:05 6,8 C 16,9 C 8,1 C 7,2 C 7,2 C 0,4 C 88 % 90 % 0 % 1016,6 hPa 0,0 l/m 0,0 km/h (0 Bft) O 90 0 min 0,0 UV-I 5,0 C 7,2 C 0,0 km/h (0 Bft)
20.10.2012 00:10 6,8 C 16,9 C 7,9 C 7,2 C 7,2 C 0,4 C 88 % 90 % 0 % 1016,6 hPa 0,0 l/m 0,0 km/h (0 Bft) O 90 0 min 0,0 UV-I 5,0 C 7,2 C 0,0 km/h (0 Bft)
20.10.2012 00:15 6,9 C 16,9 C 7,8 C 7,2 C 7,2 C 0,3 C 88 % 90 % 0 % 1016,6 hPa 0,0 l/m 0,0 km/h (0 Bft) O-NO 67 0 min 0,0 UV-I 5,1 C 7,2 C 0,0 km/h (0 Bft)
20.10.2012 00:20 6,9 C 16,9 C 7,9 C 7,4 C 7,4 C 0,5 C 89 % 90 % 0 % 1016,4 hPa 0,0 l/m 0,0 km/h (0 Bft) O-NO 67 0 min 0,0 UV-I 5,2 C 7,4 C 0,0 km/h (0 Bft)
20.10.2012 00:25 6,9 C 16,9 C 7,9 C 7,2 C 7,2 C 0,3 C 88 % 90 % 0 % 1016,4 hPa 0,0 l/m 0,0 km/h (0 Bft) O-NO 67 0 min 0,0 UV-I 5,1 C 7,2 C 0,0 km/h (0 Bft)
20.10.2012 00:30 6,9 C 16,9 C 7,6 C 7,1 C 7,1 C 0,2 C 89 % 90 % 0 % 1016,4 hPa 0,0 l/m 0,0 km/h (0 Bft) O-NO 67 0 min 0,0 UV-I 5,2 C 7,1 C 0,0 km/h (0 Bft)
20.10.2012 00:35 6,8 C 16,9 C 7,6 C 7,0 C 7,0 C 0,2 C 89 % 90 % 0 % 1016,4 hPa 0,0 l/m 0,0 km/h (0 Bft) W-SW 247 0 min 0,0 UV-I 5,1 C 7,0 C 0,0 km/h (0 Bft)
20.10.2012 00:41 6,6 C 16,8 C 7,7 C 6,7 C 6,7 C 0,1 C 89 % 91 % 0 % 1017,1 hPa 0,0 l/m 0,0 km/h (0 Bft) N 0 0 min 0,0 UV-I 4,9 C 6,7 C 0,0 km/h (0 Bft)
20.10.2012 00:55 6,2 C 16,8 C 7,3 C 6,4 C 6,4 C 0,2 C 88 % 90 % 0 % 1017,1 hPa 0,0 l/m 0,0 km/h (0 Bft) NW 315 0 min 0,0 UV-I 4,4 C 6,4 C 0,0 km/h (0 Bft)
20.10.2012 01:00 6,2 C 16,8 C 7,3 C 6,4 C 6,4 C 0,2 C 88 % 90 % 0 % 1016,4 hPa 0,0 l/m 0,0 km/h (0 Bft) W-NW 292 0 min 0,0 UV-I 4,4 C 6,4 C 0,0 km/h (0 Bft)
20.10.2012 01:05 6,0 C 16,8 C 7,2 C 6,4 C 6,4 C 0,4 C 88 % 90 % 0 % 1016,4 hPa 0,0 l/m 0,0 km/h (0 Bft) N-NO 22 0 min 0,0 UV-I 4,2 C 6,4 C 0,0 km/h (0 Bft)
20.10.2012 01:10 6,0 C 16,8 C 7,1 C 6,4 C 6,4 C 0,4 C 88 % 90 % 0 % 1016,4 hPa 0,0 l/m 0,0 km/h (0 Bft) N-NO 22 0 min 0,0 UV-I 4,2 C 6,4 C 0,0 km/h (0 Bft)
20.10.2012 01:15 6,0 C 16,8 C 7,1 C 6,4 C 6,4 C 0,4 C 89 % 90 % 0 % 1016,4 hPa 0,0 l/m 0,0 km/h (0 Bft) N 360 0 min 0,0 UV-I 4,3 C 6,4 C 0,0 km/h (0 Bft)
20.10.2012 01:20 6,0 C 16,8 C 7,1 C 6,4 C 6,4 C 0,4 C 89 % 90 % 0 % 1017,2 hPa 0,0 l/m 0,0 km/h (0 Bft) O-NO 67 0 min 0,0 UV-I 4,3 C 6,4 C 0,0 km/h (0 Bft)
20.10.2012 01:25 6,2 C 16,8 C 7,0 C 6,6 C 6,6 C 0,4 C 89 % 90 % 0 % 1017,2 hPa 0,0 l/m 0,0 km/h (0 Bft) NO 45 0 min 0,0 UV-I 4,5 C 6,6 C 0,0 km/h (0 Bft)
20.10.2012 01:30 6,1 C 16,7 C 7,1 C 6,6 C 6,6 C 0,5 C 89 % 90 % 0 % 1017,2 hPa 0,0 l/m 0,0 km/h (0 Bft) NO 45 0 min 0,0 UV-I 4,4 C 6,6 C 0,0 km/h (0 Bft)
20.10.2012 01:35 6,1 C 16,7 C 7,2 C 6,4 C 6,4 C 0,3 C 89 % 91 % 0 % 1017,2 hPa 0,0 l/m 0,0 km/h (0 Bft) SW 225 0 min 0,0 UV-I 4,4 C 6,4 C 0,0 km/h (0 Bft)
20.10.2012 01:40 6,1 C 16,7 C 7,2 C 6,5 C 6,5 C 0,4 C 89 % 91 % 0 % 1016,8 hPa 0,0 l/m 0,0 km/h (0 Bft) NW 315 0 min 0,0 UV-I 4,4 C 6,5 C 0,0 km/h (0 Bft)
20.10.2012 01:45 6,0 C 16,7 C 7,1 C 6,4 C 6,4 C 0,4 C 89 % 90 % 0 % 1016,8 hPa 0,0 l/m 0,0 km/h (0 Bft) O 90 0 min 0,0 UV-I 4,3 C 6,4 C 0,0 km/h (0 Bft)
20.10.2012 01:50 5,9 C 16,7 C 7,1 C 6,4 C 6,4 C 0,5 C 89 % 90 % 0 % 1016,8 hPa 0,0 l/m 0,0 km/h (0 Bft) O-NO 67 0 min 0,0 UV-I 4,2 C 6,4 C 0,0 km/h (0 Bft)
20.10.2012 01:55 5,9 C 16,7 C 7,1 C 6,2 C 6,2 C 0,3 C 89 % 91 % 0 % 1016,8 hPa 0,0 l/m 0,0 km/h (0 Bft) W-SW 247 0 min 0,0 UV-I 4,2 C 6,2 C 0,0 km/h (0 Bft)
20.10.2012 02:00 5,9 C 16,7 C 7,0 C 6,1 C 6,1 C 0,2 C 89 % 90 % 0 % 1016,8 hPa 0,0 l/m 0,0 km/h (0 Bft) O 90 0 min 0,0 UV-I 4,2 C 6,1 C 0,0 km/h (0 Bft)
20.10.2012 02:05 5,9 C 16,7 C 7,0 C 6,2 C 6,2 C 0,3 C 89 % 90 % 0 % 1016,8 hPa 0,0 l/m 0,0 km/h (0 Bft) O 90 0 min 0,0 UV-I 4,2 C 6,2 C 0,0 km/h (0 Bft)
20.10.2012 02:10 5,9 C 16,8 C 6,8 C 6,1 C 6,1 C 0,2 C 89 % 90 % 0 % 1016,8 hPa 0,0 l/m 0,0 km/h (0 Bft) O-NO 67 0 min 0,0 UV-I 4,2 C 6,1 C 0,0 km/h (0 Bft)
20.10.2012 02:15 5,7 C 16,7 C 6,7 C 6,1 C 6,1 C 0,4 C 89 % 90 % 0 % 1016,8 hPa 0,0 l/m 0,0 km/h (0 Bft) O-NO 67 0 min 0,0 UV-I 4,0 C 6,1 C 0,0 km/h (0 Bft)
20.10.2012 02:20 5,6 C 16,7 C 6,7 C 5,9 C 5,9 C 0,3 C 89 % 90 % 0 % 1016,9 hPa 0,0 l/m 0,0 km/h (0 Bft) W-SW 247 0 min 0,0 UV-I 3,9 C 5,9 C 0,0 km/h (0 Bft)
20.10.2012 02:25 5,5 C 16,7 C 6,7 C 5,6 C 5,6 C 0,1 C 89 % 90 % 0 % 1016,9 hPa 0,0 l/m 0,0 km/h (0 Bft) W 270 0 min 0,0 UV-I 3,8 C 5,6 C 0,0 km/h (0 Bft)
20.10.2012 02:30 5,5 C 16,7 C 6,7 C 5,5 C 5,5 C 0,0 C 89 % 91 % 0 % 1016,9 hPa 0,0 l/m 0,0 km/h (0 Bft) W-SW 247 0 min 0,0 UV-I 3,8 C 5,5 C 0,0 km/h (0 Bft)
20.10.2012 02:35 5,3 C 16,7 C 6,5 C 5,4 C 5,4 C 0,1 C 89 % 90 % 0 % 1016,9 hPa 0,0 l/m 0,0 km/h (0 Bft) S-SO 157 0 min 0,0 UV-I 3,6 C 5,4 C 0,0 km/h (0 Bft)
20.10.2012 02:40 5,3 C 16,7 C 6,4 C 5,4 C 5,4 C 0,1 C 89 % 90 % 0 % 1017,2 hPa 0,0 l/m 0,0 km/h (0 Bft) SO 135 0 min 0,0 UV-I 3,6 C 5,4 C 0,0 km/h (0 Bft)
20.10.2012 02:45 5,2 C 16,6 C 6,4 C 5,3 C 5,3 C 0,1 C 89 % 91 % 0 % 1017,2 hPa 0,0 l/m 0,0 km/h (0 Bft) W 270 0 min 0,0 UV-I 3,5 C 5,3 C 0,0 km/h (0 Bft)
20.10.2012 02:50 5,2 C 16,6 C 6,5 C 5,3 C 5,3 C 0,1 C 89 % 91 % 0 % 1017,2 hPa 0,0 l/m 0,0 km/h (0 Bft) W 270 0 min 0,0 UV-I 3,5 C 5,3 C 0,0 km/h (0 Bft)
20.10.2012 02:55 5,2 C 16,6 C 6,3 C 5,3 C 5,3 C 0,1 C 89 % 91 % 0 % 1017,2 hPa 0,0 l/m 0,0 km/h (0 Bft) SO 135 0 min 0,0 UV-I 3,5 C 5,3 C 0,0 km/h (0 Bft)
20.10.2012 03:00 5,2 C 16,6 C 6,1 C 5,4 C 5,4 C 0,2 C 89 % 90 % 0 % 1017,0 hPa 0,0 l/m 0,0 km/h (0 Bft) SO 135 0 min 0,0 UV-I 3,5 C 5,4 C 0,0 km/h (0 Bft)
20.10.2012 03:05 5,1 C 16,6 C 6,1 C 5,4 C 5,4 C 0,3 C 89 % 91 % 0 % 1017,0 hPa 0,0 l/m 0,0 km/h (0 Bft) W 270 0 min 0,0 UV-I 3,4 C 5,4 C 0,0 km/h (0 Bft)
20.10.2012 03:10 5,1 C 16,6 C 6,3 C 5,4 C 5,4 C 0,3 C 89 % 91 % 0 % 1017,0 hPa 0,0 l/m 0,0 km/h (0 Bft) W-SW 247 0 min 0,0 UV-I 3,4 C 5,4 C 0,0 km/h (0 Bft)
20.10.2012 03:15 5,0 C 16,6 C 6,4 C 5,3 C 5,3 C 0,3 C 89 % 91 % 0 % 1017,0 hPa 0,0 l/m 0,0 km/h (0 Bft) SW 225 0 min 0,0 UV-I 3,3 C 5,3 C 0,0 km/h (0 Bft)
20.10.2012 03:20 4,9 C 16,5 C 6,3 C 5,2 C 5,2 C 0,3 C 89 % 91 % 0 % 1017,0 hPa 0,0 l/m 0,0 km/h (0 Bft) SW 225 0 min 0,0 UV-I 3,2 C 5,2 C 0,0 km/h (0 Bft)
20.10.2012 03:25 4,8 C 16,5 C 6,1 C 4,9 C 4,9 C 0,1 C 89 % 91 % 0 % 1017,0 hPa 0,0 l/m 0,0 km/h (0 Bft) W-SW 247 0 min 0,0 UV-I 3,1 C 4,9 C 0,0 km/h (0 Bft)
20.10.2012 03:30 4,7 C 16,5 C 6,0 C 4,7 C 4,7 C 0,0 C 89 % 91 % 0 % 1017,0 hPa 0,0 l/m 0,0 km/h (0 Bft) SW 225 0 min 0,0 UV-I 3,0 C 4,7 C 0,0 km/h (0 Bft)
20.10.2012 03:35 4,5 C 16,5 C 5,9 C 4,5 C 4,5 C 0,0 C 89 % 91 % 0 % 1017,0 hPa 0,0 l/m 0,0 km/h (0 Bft) SW 225 0 min 0,0 UV-I 2,8 C 4,5 C 0,0 km/h (0 Bft)
20.10.2012 03:40 4,4 C 16,5 C 5,8 C 4,4 C 4,4 C 0,0 C 89 % 90 % 0 % 1016,7 hPa 0,0 l/m 0,0 km/h (0 Bft) SW 225 0 min 0,0 UV-I 2,7 C 4,4 C 0,0 km/h (0 Bft)
20.10.2012 03:45 4,3 C 16,5 C 5,7 C 4,3 C 4,3 C 0,0 C 89 % 91 % 0 % 1016,7 hPa 0,0 l/m 0,0 km/h (0 Bft) W-SW 247 0 min 0,0 UV-I 2,7 C 4,3 C 0,0 km/h (0 Bft)
20.10.2012 03:50 4,1 C 16,5 C 5,9 C 4,4 C 4,4 C 0,3 C 89 % 91 % 0 % 1016,7 hPa 0,0 l/m 0,0 km/h (0 Bft) W-SW 247 0 min 0,0 UV-I 2,5 C 4,4 C 0,0 km/h (0 Bft)
20.10.2012 03:55 4,1 C 16,4 C 5,9 C 4,4 C 4,4 C 0,3 C 89 % 91 % 0 % 1016,7 hPa 0,0 l/m 0,0 km/h (0 Bft) W 270 0 min 0,0 UV-I 2,5 C 4,4 C 0,0 km/h (0 Bft)
20.10.2012 04:00 4,1 C 16,5 C 5,7 C 4,3 C 4,3 C 0,2 C 89 % 91 % 0 % 1017,1 hPa 0,0 l/m 0,0 km/h (0 Bft) SW 225 0 min 0,0 UV-I 2,5 C 4,3 C 0,0 km/h (0 Bft)
20.10.2012 04:05 4,1 C 16,4 C 5,6 C 4,4 C 4,4 C 0,3 C 89 % 91 % 0 % 1017,1 hPa 0,0 l/m 0,0 km/h (0 Bft) SO 135 0 min 0,0 UV-I 2,5 C 4,4 C 0,0 km/h (0 Bft)
20.10.2012 04:10 4,1 C 16,4 C 5,5 C 4,3 C 4,3 C 0,2 C 89 % 91 % 0 % 1017,1 hPa 0,0 l/m 0,0 km/h (0 Bft) SO 135 0 min 0,0 UV-I 2,5 C 4,3 C 0,0 km/h (0 Bft)
20.10.2012 04:15 4,1 C 16,4 C 5,5 C 4,4 C 4,4 C 0,3 C 90 % 91 % 0 % 1017,1 hPa 0,0 l/m 0,0 km/h (0 Bft) O-NO 67 0 min 0,0 UV-I 2,6 C 4,4 C 0,0 km/h (0 Bft)
20.10.2012 04:20 4,3 C 16,4 C 5,5 C 4,4 C 4,4 C 0,1 C 90 % 91 % 0 % 1017,1 hPa 0,0 l/m 0,0 km/h (0 Bft) O 90 0 min 0,0 UV-I 2,8 C 4,4 C 0,0 km/h (0 Bft)
20.10.2012 04:25 4,3 C 16,4 C 5,5 C 4,4 C 4,4 C 0,1 C 90 % 91 % 0 % 1017,1 hPa 0,0 l/m 0,0 km/h (0 Bft) O-NO 67 0 min 0,0 UV-I 2,8 C 4,4 C 0,0 km/h (0 Bft)
20.10.2012 04:30 4,2 C 16,4 C 5,5 C 4,4 C 4,4 C 0,2 C 90 % 91 % 0 % 1017,1 hPa 0,0 l/m 0,0 km/h (0 Bft) O-NO 67 0 min 0,0 UV-I 2,7 C 4,4 C 0,0 km/h (0 Bft)
20.10.2012 04:35 4,1 C 16,4 C 5,3 C 4,3 C 4,3 C 0,2 C 90 % 91 % 0 % 1017,1 hPa 0,0 l/m 0,0 km/h (0 Bft) O-NO 67 0 min 0,0 UV-I 2,6 C 4,3 C 0,0 km/h (0 Bft)
20.10.2012 04:40 4,1 C 16,3 C 5,2 C 4,2 C 4,2 C 0,1 C 90 % 91 % 0 % 1017,5 hPa 0,0 l/m 0,0 km/h (0 Bft) W-SW 247 0 min 0,0 UV-I 2,6 C 4,2 C 0,0 km/h (0 Bft)
20.10.2012 04:45 4,0 C 16,3 C 5,3 C 4,2 C 4,2 C 0,2 C 90 % 91 % 0 % 1017,5 hPa 0,0 l/m 0,0 km/h (0 Bft) O-SO 112 0 min 0,0 UV-I 2,5 C 4,2 C 0,0 km/h (0 Bft)
20.10.2012 04:50 4,0 C 16,3 C 5,3 C 4,4 C 4,4 C 0,4 C 90 % 91 % 0 % 1017,5 hPa 0,0 l/m 0,0 km/h (0 Bft) O 90 0 min 0,0 UV-I 2,5 C 4,4 C 0,0 km/h (0 Bft)
20.10.2012 04:55 4,1 C 16,3 C 5,3 C 4,4 C 4,4 C 0,3 C 90 % 91 % 0 % 1017,5 hPa 0,0 l/m 0,0 km/h (0 Bft) O-NO 67 0 min 0,0 UV-I 2,6 C 4,4 C 0,0 km/h (0 Bft)
20.10.2012 05:00 4,1 C 16,3 C 5,2 C 4,5 C 4,5 C 0,4 C 90 % 91 % 0 % 1017,6 hPa 0,0 l/m 0,0 km/h (0 Bft) O-NO 67 0 min 0,0 UV-I 2,6 C 4,5 C 0,0 km/h (0 Bft)
20.10.2012 05:05 4,1 C 16,3 C 5,3 C 4,6 C 4,6 C 0,5 C 90 % 91 % 0 % 1017,6 hPa 0,0 l/m 0,0 km/h (0 Bft) O-NO 67 0 min 0,0 UV-I 2,6 C 4,6 C 0,0 km/h (0 Bft)
20.10.2012 05:10 4,1 C 16,3 C 5,3 C 4,5 C 4,5 C 0,4 C 90 % 91 % 0 % 1017,6 hPa 0,0 l/m 0,0 km/h (0 Bft) O-NO 67 0 min 0,0 UV-I 2,6 C 4,5 C 0,0 km/h (0 Bft)
20.10.2012 05:15 4,1 C 16,3 C 5,2 C 4,4 C 4,4 C 0,3 C 90 % 91 % 0 % 1017,6 hPa 0,0 l/m 0,0 km/h (0 Bft) O-NO 67 0 min 0,0 UV-I 2,6 C 4,4 C 0,0 km/h (0 Bft)
20.10.2012 05:20 4,1 C 16,3 C 5,2 C 4,3 C 4,3 C 0,2 C 90 % 91 % 0 % 1017,9 hPa 0,0 l/m 0,0 km/h (0 Bft) W 270 0 min 0,0 UV-I 2,6 C 4,3 C 0,0 km/h (0 Bft)
20.10.2012 05:25 4,0 C 16,3 C 5,4 C 4,3 C 4,3 C 0,3 C 90 % 91 % 0 % 1017,9 hPa 0,0 l/m 0,0 km/h (0 Bft) S-SW 202 0 min 0,0 UV-I 2,5 C 4,3 C 0,0 km/h (0 Bft)
20.10.2012 05:30 4,0 C 16,2 C 5,2 C 4,2 C 4,2 C 0,2 C 90 % 91 % 0 % 1017,9 hPa 0,0 l/m 0,0 km/h (0 Bft) O 90 0 min 0,0 UV-I 2,5 C 4,2 C 0,0 km/h (0 Bft)
20.10.2012 05:35 3,9 C 16,2 C 5,1 C 4,2 C 4,2 C 0,3 C 90 % 91 % 0 % 1017,9 hPa 0,0 l/m 0,0 km/h (0 Bft) SW 225 0 min 0,0 UV-I 2,4 C 4,2 C 0,0 km/h (0 Bft)
20.10.2012 05:40 3,8 C 16,2 C 5,2 C 4,0 C 4,0 C 0,2 C 90 % 91 % 0 % 1018,2 hPa 0,0 l/m 0,0 km/h (0 Bft) NW 315 0 min 0,0 UV-I 2,3 C 4,0 C 0,0 km/h (0 Bft)
20.10.2012 05:45 3,9 C 16,2 C 5,1 C 4,0 C 4,0 C 0,1 C 90 % 91 % 0 % 1018,2 hPa 0,0 l/m 0,0 km/h (0 Bft) W-NW 292 0 min 0,0 UV-I 2,4 C 4,0 C 0,0 km/h (0 Bft)
20.10.2012 05:50 3,9 C 16,2 C 5,1 C 3,9 C 3,9 C 0,0 C 90 % 91 % 0 % 1018,2 hPa 0,0 l/m 0,0 km/h (0 Bft) W-NW 292 0 min 0,0 UV-I 2,4 C 3,9 C 0,0 km/h (0 Bft)
20.10.2012 05:55 3,9 C 16,2 C 5,2 C 3,9 C 3,8 C 0,0 C 90 % 91 % 0 % 1018,2 hPa 0,0 l/m 0,0 km/h (0 Bft) W 270 0 min 0,0 UV-I 2,4 C 3,8 C 0,0 km/h (0 Bft)
20.10.2012 06:00 3,9 C 16,1 C 5,4 C 4,0 C 4,0 C 0,1 C 90 % 91 % 0 % 1018,5 hPa 0,0 l/m 0,0 km/h (0 Bft) W-SW 247 0 min 0,0 UV-I 2,4 C 4,0 C 0,0 km/h (0 Bft)
20.10.2012 06:05 3,8 C 16,1 C 5,4 C 4,0 C 4,0 C 0,2 C 90 % 91 % 0 % 1018,5 hPa 0,0 l/m 0,0 km/h (0 Bft) W-SW 247 0 min 0,0 UV-I 2,3 C 4,0 C 0,0 km/h (0 Bft)
20.10.2012 06:10 3,7 C 16,1 C 5,2 C 3,9 C 3,9 C 0,2 C 90 % 91 % 0 % 1018,5 hPa 0,0 l/m 0,0 km/h (0 Bft) W-SW 247 0 min 0,0 UV-I 2,2 C 3,9 C 0,0 km/h (0 Bft)
20.10.2012 06:15 3,7 C 16,1 C 5,1 C 3,7 C 3,7 C 0,0 C 90 % 91 % 0 % 1018,5 hPa 0,0 l/m 0,0 km/h (0 Bft) SW 225 0 min 0,0 UV-I 2,2 C 3,7 C 0,0 km/h (0 Bft)
20.10.2012 06:20 3,6 C 16,1 C 5,0 C 3,7 C 3,7 C 0,1 C 90 % 91 % 0 % 1018,1 hPa 0,0 l/m 0,0 km/h (0 Bft) S-SW 202 0 min 0,0 UV-I 2,1 C 3,7 C 0,0 km/h (0 Bft)
20.10.2012 06:25 3,6 C 16,1 C 4,9 C 3,8 C 3,8 C 0,2 C 90 % 91 % 0 % 1018,1 hPa 0,0 l/m 0,0 km/h (0 Bft) N-NO 22 0 min 0,0 UV-I 2,1 C 3,8 C 0,0 km/h (0 Bft)
20.10.2012 06:30 3,7 C 16,1 C 4,8 C 3,8 C 3,8 C 0,1 C 90 % 91 % 0 % 1018,1 hPa 0,0 l/m 0,0 km/h (0 Bft) N-NO 22 0 min 0,0 UV-I 2,2 C 3,8 C 0,0 km/h (0 Bft)
20.10.2012 06:35 3,6 C 16,1 C 4,8 C 3,9 C 3,9 C 0,3 C 90 % 91 % 0 % 1018,1 hPa 0,0 l/m 0,0 km/h (0 Bft) N-NO 22 0 min 0,0 UV-I 2,1 C 3,9 C 0,0 km/h (0 Bft)
20.10.2012 06:46 3,7 C 16,1 C 4,8 C 4,2 C 4,2 C 0,5 C 90 % 91 % 0 % 1018,0 hPa 0,0 l/m 0,0 km/h (0 Bft) N 0 0 min 0,0 UV-I 2,2 C 4,2 C 0,0 km/h (0 Bft)
20.10.2012 06:55 3,5 C 16,0 C 4,8 C 3,8 C 3,8 C 0,3 C 90 % 91 % 0 % 1018,0 hPa 0,0 l/m 0,0 km/h (0 Bft) W-SW 247 0 min 0,0 UV-I 2,0 C 3,8 C 0,0 km/h (0 Bft)
20.10.2012 07:00 3,4 C 16,0 C 4,7 C 3,4 C 3,3 C 0,0 C 90 % 91 % 0 % 1018,1 hPa 0,0 l/m 0,0 km/h (0 Bft) W-NW 292 0 min 0,0 UV-I 1,9 C 3,3 C 0,0 km/h (0 Bft)
20.10.2012 07:05 3,2 C 16,0 C 4,7 C 3,2 C 3,2 C 0,0 C 90 % 91 % 0 % 1018,1 hPa 0,0 l/m 0,0 km/h (0 Bft) W-SW 247 0 min 0,0 UV-I 1,7 C 3,2 C 0,0 km/h (0 Bft)
20.10.2012 07:10 3,2 C 16,0 C 4,7 C 3,2 C 3,1 C 0,0 C 90 % 91 % 0 % 1018,1 hPa 0,0 l/m 0,0 km/h (0 Bft) W-SW 247 0 min 0,0 UV-I 1,7 C 3,1 C 0,0 km/h (0 Bft)
20.10.2012 07:15 3,1 C 15,9 C 4,7 C 3,2 C 3,2 C 0,1 C 90 % 91 % 0 % 1018,1 hPa 0,0 l/m 0,0 km/h (0 Bft) O-SO 112 0 min 0,0 UV-I 1,6 C 3,2 C 0,0 km/h (0 Bft)
20.10.2012 07:20 3,2 C 15,9 C 4,7 C 3,3 C 3,3 C 0,1 C 90 % 91 % 0 % 1018,7 hPa 0,0 l/m 0,0 km/h (0 Bft) O-SO 112 0 min 0,0 UV-I 1,7 C 3,3 C 0,0 km/h (0 Bft)
20.10.2012 07:25 3,3 C 16,0 C 4,7 C 3,5 C 3,5 C 0,2 C 90 % 91 % 0 % 1018,7 hPa 0,0 l/m 0,0 km/h (0 Bft) O-SO 112 0 min 0,0 UV-I 1,8 C 3,5 C 0,0 km/h (0 Bft)
20.10.2012 07:30 3,3 C 15,9 C 4,7 C 3,5 C 3,5 C 0,2 C 90 % 92 % 0 % 1018,7 hPa 0,0 l/m 0,0 km/h (0 Bft) O-NO 67 0 min 0,0 UV-I 1,8 C 3,5 C 0,0 km/h (0 Bft)
20.10.2012 07:35 3,3 C 15,9 C 4,7 C 3,6 C 3,6 C 0,3 C 90 % 92 % 0 % 1018,7 hPa 0,0 l/m 0,0 km/h (0 Bft) O-NO 67 0 min 0,0 UV-I 1,8 C 3,6 C 0,0 km/h (0 Bft)
20.10.2012 07:40 3,3 C 15,9 C 4,7 C 3,5 C 3,5 C 0,2 C 90 % 92 % 0 % 1018,9 hPa 0,0 l/m 0,0 km/h (0 Bft) O-NO 67 0 min 0,0 UV-I 1,8 C 3,5 C 0,0 km/h (0 Bft)
20.10.2012 07:45 3,2 C 15,9 C 4,6 C 3,4 C 3,4 C 0,2 C 90 % 92 % 0 % 1018,9 hPa 0,0 l/m 0,0 km/h (0 Bft) W 270 0 min 0,0 UV-I 1,7 C 3,4 C 0,0 km/h (0 Bft)
20.10.2012 07:50 3,1 C 15,9 C 4,7 C 3,3 C 3,3 C 0,2 C 90 % 92 % 0 % 1018,9 hPa 0,0 l/m 0,0 km/h (0 Bft) W 270 0 min 0,0 UV-I 1,6 C 3,3 C 0,0 km/h (0 Bft)
20.10.2012 07:55 3,1 C 15,9 C 4,7 C 3,2 C 3,2 C 0,1 C 90 % 92 % 3 % 1018,9 hPa 0,0 l/m 0,0 km/h (0 Bft) W-SW 247 0 min 0,0 UV-I 1,6 C 3,2 C 0,0 km/h (0 Bft)
20.10.2012 08:00 2,9 C 15,8 C 4,7 C 3,2 C 3,2 C 0,3 C 90 % 92 % 8 % 1018,8 hPa 0,0 l/m 0,0 km/h (0 Bft) W 270 0 min 0,0 UV-I 1,4 C 3,2 C 0,0 km/h (0 Bft)
20.10.2012 08:05 3,0 C 15,8 C 4,8 C 3,3 C 3,3 C 0,3 C 90 % 92 % 8 % 1018,8 hPa 0,0 l/m 0,0 km/h (0 Bft) W-SW 247 0 min 0,0 UV-I 1,5 C 3,3 C 0,0 km/h (0 Bft)
20.10.2012 08:10 2,9 C 15,8 C 4,8 C 3,4 C 3,4 C 0,5 C 90 % 92 % 13 % 1018,8 hPa 0,0 l/m 0,0 km/h (0 Bft) W-SW 247 0 min 0,0 UV-I 1,4 C 3,4 C 0,0 km/h (0 Bft)
20.10.2012 08:15 2,9 C 15,8 C 4,8 C 3,4 C 3,4 C 0,5 C 90 % 92 % 13 % 1018,8 hPa 0,0 l/m 0,0 km/h (0 Bft) W-SW 247 0 min 0,0 UV-I 1,4 C 3,4 C 0,0 km/h (0 Bft)
20.10.2012 08:20 2,9 C 15,8 C 4,8 C 3,5 C 3,5 C 0,6 C 91 % 92 % 16 % 1019,2 hPa 0,0 l/m 0,0 km/h (0 Bft) W 270 0 min 0,0 UV-I 1,6 C 3,5 C 0,0 km/h (0 Bft)
20.10.2012 08:25 3,0 C 15,8 C 4,9 C 3,6 C 3,6 C 0,6 C 91 % 92 % 16 % 1019,2 hPa 0,0 l/m 0,0 km/h (0 Bft) W 270 0 min 0,0 UV-I 1,7 C 3,6 C 0,0 km/h (0 Bft)
20.10.2012 08:30 3,0 C 15,8 C 4,8 C 3,8 C 3,8 C 0,8 C 91 % 92 % 21 % 1019,2 hPa 0,0 l/m 0,0 km/h (0 Bft) S-SW 202 0 min 0,0 UV-I 1,7 C 3,8 C 0,0 km/h (0 Bft)
20.10.2012 08:35 3,1 C 15,8 C 5,0 C 3,8 C 3,8 C 0,7 C 91 % 92 % 18 % 1019,2 hPa 0,0 l/m 0,0 km/h (0 Bft) W 270 0 min 0,0 UV-I 1,8 C 3,8 C 0,0 km/h (0 Bft)
20.10.2012 08:40 3,2 C 15,8 C 5,1 C 4,2 C 4,2 C 1,0 C 91 % 92 % 26 % 1019,5 hPa 0,0 l/m 0,0 km/h (0 Bft) O-NO 67 0 min 0,0 UV-I 1,9 C 4,2 C 0,0 km/h (0 Bft)
20.10.2012 08:45 3,7 C 15,8 C 5,3 C 4,7 C 4,7 C 1,0 C 92 % 92 % 26 % 1019,5 hPa 0,0 l/m 0,0 km/h (0 Bft) O-NO 67 0 min 0,0 UV-I 2,5 C 4,7 C 0,0 km/h (0 Bft)
20.10.2012 08:50 3,9 C 15,8 C 5,4 C 5,1 C 5,1 C 1,2 C 92 % 92 % 32 % 1019,5 hPa 0,0 l/m 0,0 km/h (0 Bft) O 90 0 min 0,0 UV-I 2,7 C 5,1 C 0,0 km/h (0 Bft)
20.10.2012 08:55 4,3 C 15,8 C 5,7 C 5,6 C 5,6 C 1,3 C 92 % 92 % 34 % 1019,5 hPa 0,0 l/m 0,0 km/h (0 Bft) O-SO 112 0 min 0,0 UV-I 3,1 C 5,6 C 0,0 km/h (0 Bft)
20.10.2012 09:00 4,5 C 15,8 C 6,0 C 6,1 C 6,1 C 1,6 C 92 % 93 % 42 % 1019,6 hPa 0,0 l/m 0,0 km/h (0 Bft) N-NO 22 0 min 0,0 UV-I 3,3 C 6,1 C 0,0 km/h (0 Bft)
20.10.2012 09:05 5,1 C 15,7 C 6,4 C 6,6 C 6,6 C 1,5 C 92 % 93 % 39 % 1019,6 hPa 0,0 l/m 0,0 km/h (0 Bft) SO 135 0 min 0,0 UV-I 3,9 C 6,6 C 0,0 km/h (0 Bft)
20.10.2012 09:10 5,2 C 15,7 C 6,7 C 7,0 C 7,0 C 1,8 C 92 % 93 % 47 % 1019,6 hPa 0,0 l/m 0,0 km/h (0 Bft) S 180 0 min 0,0 UV-I 4,0 C 7,0 C 0,0 km/h (0 Bft)
20.10.2012 09:15 5,4 C 15,6 C 7,1 C 7,2 C 7,2 C 1,8 C 92 % 93 % 47 % 1019,6 hPa 0,0 l/m 0,0 km/h (0 Bft) W-NW 292 0 min 0,0 UV-I 4,2 C 7,2 C 0,0 km/h (0 Bft)
20.10.2012 09:20 5,6 C 15,6 C 7,2 C 7,7 C 7,7 C 2,1 C 92 % 93 % 55 % 1019,6 hPa 0,0 l/m 0,0 km/h (0 Bft) SW 225 0 min 0,0 UV-I 4,4 C 7,7 C 0,0 km/h (0 Bft)
20.10.2012 09:25 5,9 C 15,5 C 7,2 C 7,9 C 7,9 C 2,0 C 92 % 93 % 53 % 1019,6 hPa 0,0 l/m 0,0 km/h (0 Bft) W-SW 247 0 min 0,0 UV-I 4,7 C 7,9 C 0,0 km/h (0 Bft)
20.10.2012 09:30 6,1 C 15,5 C 7,2 C 8,0 C 8,0 C 1,9 C 92 % 93 % 50 % 1019,6 hPa 0,0 l/m 0,0 km/h (0 Bft) W-SW 247 0 min 0,0 UV-I 4,9 C 8,0 C 0,0 km/h (0 Bft)
20.10.2012 09:35 6,3 C 15,5 C 7,7 C 8,1 C 8,1 C 1,8 C 92 % 93 % 47 % 1019,6 hPa 0,0 l/m 0,0 km/h (0 Bft) SW 225 0 min 0,0 UV-I 5,1 C 8,1 C 0,0 km/h (0 Bft)
20.10.2012 09:40 6,4 C 15,5 C 8,0 C 8,4 C 8,4 C 2,0 C 92 % 93 % 53 % 1019,6 hPa 0,0 l/m 0,0 km/h (0 Bft) SW 225 0 min 0,0 UV-I 5,2 C 8,4 C 0,0 km/h (0 Bft)
20.10.2012 09:45 6,8 C 15,5 C 8,3 C 8,8 C 8,8 C 2,0 C 92 % 93 % 53 % 1019,6 hPa 0,0 l/m 0,0 km/h (0 Bft) SW 225 0 min 0,0 UV-I 5,6 C 8,8 C 0,0 km/h (0 Bft)
20.10.2012 09:50 6,9 C 15,5 C 8,5 C 9,0 C 9,0 C 2,1 C 92 % 93 % 55 % 1019,6 hPa 0,0 l/m 0,0 km/h (0 Bft) NO 45 0 min 0,0 UV-I 5,7 C 9,0 C 0,0 km/h (0 Bft)
20.10.2012 09:55 7,3 C 15,5 C 8,8 C 9,3 C 9,3 C 2,0 C 93 % 93 % 53 % 1019,6 hPa 0,0 l/m 0,0 km/h (0 Bft) W-SW 247 0 min 0,1 UV-I 6,2 C 9,3 C 0,0 km/h (0 Bft)
20.10.2012 10:00 7,4 C 15,5 C 9,1 C 9,6 C 9,6 C 2,2 C 93 % 93 % 58 % 1019,8 hPa 0,0 l/m 0,0 km/h (0 Bft) SW 225 0 min 0,1 UV-I 6,3 C 9,6 C 0,0 km/h (0 Bft)
20.10.2012 10:05 7,8 C 15,4 C 9,3 C 10,0 C 10,0 C 2,2 C 93 % 93 % 58 % 1019,8 hPa 0,0 l/m 0,0 km/h (0 Bft) NW 315 0 min 0,1 UV-I 6,7 C 10,0 C 0,0 km/h (0 Bft)
20.10.2012 10:10 8,0 C 15,3 C 9,7 C 10,3 C 10,3 C 2,3 C 93 % 93 % 61 % 1019,8 hPa 0,0 l/m 0,0 km/h (0 Bft) NW 315 0 min 0,2 UV-I 6,9 C 10,3 C 0,0 km/h (0 Bft)
20.10.2012 10:15 8,3 C 15,3 C 9,9 C 10,7 C 10,7 C 2,4 C 93 % 93 % 63 % 1019,8 hPa 0,0 l/m 0,0 km/h (0 Bft) S-SO 157 0 min 0,2 UV-I 7,2 C 10,7 C 0,0 km/h (0 Bft)
20.10.2012 10:20 8,5 C 15,3 C 10,0 C 11,2 C 11,2 C 2,7 C 93 % 93 % 71 % 1019,8 hPa 0,0 l/m 0,0 km/h (0 Bft) W 270 0 min 0,2 UV-I 7,4 C 11,2 C 0,0 km/h (0 Bft)
20.10.2012 10:25 8,9 C 15,3 C 10,2 C 11,4 C 11,4 C 2,5 C 93 % 93 % 66 % 1019,8 hPa 0,0 l/m 0,0 km/h (0 Bft) S-SO 157 0 min 0,2 UV-I 7,8 C 11,4 C 0,0 km/h (0 Bft)
20.10.2012 10:30 9,1 C 15,3 C 10,5 C 11,5 C 11,5 C 2,4 C 93 % 92 % 63 % 1019,8 hPa 0,0 l/m 0,0 km/h (0 Bft) N-NW 337 0 min 0,2 UV-I 8,0 C 11,5 C 0,0 km/h (0 Bft)
20.10.2012 10:35 9,2 C 15,3 C 10,6 C 11,6 C 11,6 C 2,4 C 93 % 92 % 63 % 1019,8 hPa 0,0 l/m 0,0 km/h (0 Bft) S 180 0 min 0,2 UV-I 8,1 C 11,6 C 0,0 km/h (0 Bft)
20.10.2012 10:40 9,4 C 15,3 C 10,7 C 12,0 C 12,0 C 2,6 C 92 % 92 % 68 % 1019,9 hPa 0,0 l/m 0,0 km/h (0 Bft) SW 225 0 min 0,2 UV-I 8,2 C 12,0 C 0,0 km/h (0 Bft)
20.10.2012 10:45 9,6 C 15,3 C 10,9 C 12,4 C 12,4 C 2,8 C 92 % 92 % 74 % 1019,9 hPa 0,0 l/m 0,2 km/h (0 Bft) W 270 0 min 0,3 UV-I 8,4 C 12,4 C 0,0 km/h (0 Bft)
20.10.2012 10:50 9,9 C 15,3 C 11,2 C 12,7 C 12,7 C 2,8 C 93 % 92 % 74 % 1019,9 hPa 0,0 l/m 0,2 km/h (0 Bft) S 180 0 min 0,3 UV-I 8,8 C 12,7 C 0,0 km/h (0 Bft)
20.10.2012 10:55 10,0 C 15,3 C 11,5 C 13,0 C 13,0 C 3,0 C 93 % 92 % 79 % 1019,9 hPa 0,0 l/m 0,0 km/h (0 Bft) W 270 0 min 0,3 UV-I 8,9 C 13,0 C 0,0 km/h (0 Bft)
20.10.2012 11:00 10,2 C 15,3 C 11,7 C 13,4 C 13,4 C 3,2 C 93 % 92 % 84 % 1019,6 hPa 0,0 l/m 0,0 km/h (0 Bft) W-SW 247 0 min 0,4 UV-I 9,1 C 13,4 C 0,0 km/h (0 Bft)
20.10.2012 11:05 10,4 C 15,3 C 12,0 C 13,9 C 13,9 C 3,5 C 93 % 92 % 92 % 1019,6 hPa 0,0 l/m 0,0 km/h (0 Bft) SW 225 5 min 0,4 UV-I 9,3 C 13,9 C 0,0 km/h (0 Bft)
20.10.2012 11:10 10,5 C 15,3 C 12,3 C 14,1 C 14,1 C 3,6 C 93 % 91 % 95 % 1019,6 hPa 0,0 l/m 0,0 km/h (0 Bft) W-SW 247 5 min 0,4 UV-I 9,4 C 14,1 C 1,8 km/h (1 Bft)
20.10.2012 11:15 10,8 C 15,4 C 12,4 C 14,5 C 14,5 C 3,7 C 93 % 91 % 97 % 1019,6 hPa 0,0 l/m 0,2 km/h (0 Bft) S 180 5 min 0,4 UV-I 9,7 C 14,5 C 0,0 km/h (0 Bft)
20.10.2012 11:20 10,9 C 15,3 C 12,6 C 15,0 C 15,0 C 4,1 C 93 % 91 % 100 % 1019,6 hPa 0,0 l/m 0,5 km/h (0 Bft) W-SW 247 5 min 0,4 UV-I 9,8 C 15,0 C 0,0 km/h (0 Bft)
20.10.2012 11:25 11,2 C 15,3 C 12,8 C 15,6 C 15,6 C 4,4 C 93 % 91 % 100 % 1019,6 hPa 0,0 l/m 0,6 km/h (0 Bft) W-SW 247 5 min 0,4 UV-I 10,1 C 15,6 C 0,0 km/h (0 Bft)
20.10.2012 11:30 11,3 C 15,3 C 13,1 C 16,1 C 16,1 C 4,8 C 93 % 91 % 100 % 1019,6 hPa 0,0 l/m 0,6 km/h (0 Bft) W 270 5 min 0,5 UV-I 10,2 C 16,1 C 0,0 km/h (0 Bft)
20.10.2012 11:35 11,6 C 15,3 C 13,4 C 16,6 C 16,6 C 5,0 C 93 % 90 % 100 % 1019,6 hPa 0,0 l/m 0,5 km/h (0 Bft) NW 315 5 min 0,5 UV-I 10,5 C 16,6 C 0,0 km/h (0 Bft)
20.10.2012 11:40 11,7 C 15,3 C 13,7 C 17,2 C 17,2 C 5,5 C 93 % 90 % 100 % 1019,5 hPa 0,0 l/m 0,2 km/h (0 Bft) W-NW 292 5 min 0,5 UV-I 10,6 C 17,2 C 0,0 km/h (0 Bft)
20.10.2012 11:45 11,8 C 15,3 C 14,1 C 17,4 C 17,4 C 5,6 C 93 % 89 % 100 % 1019,5 hPa 0,0 l/m 0,3 km/h (0 Bft) W-SW 247 5 min 0,6 UV-I 10,7 C 17,4 C 0,0 km/h (0 Bft)
20.10.2012 11:50 12,1 C 15,3 C 14,3 C 17,7 C 17,7 C 5,6 C 93 % 88 % 100 % 1019,5 hPa 0,0 l/m 1,4 km/h (1 Bft) S 180 5 min 0,6 UV-I 11,0 C 17,7 C 5,0 km/h (1 Bft)
20.10.2012 11:55 12,8 C 15,3 C 14,7 C 18,1 C 18,1 C 5,3 C 93 % 88 % 100 % 1019,5 hPa 0,0 l/m 2,1 km/h (1 Bft) NW 315 5 min 0,6 UV-I 11,7 C 18,1 C 1,9 km/h (1 Bft)
20.10.2012 12:00 13,8 C 15,3 C 14,8 C 18,4 C 18,4 C 4,6 C 93 % 87 % 100 % 1019,6 hPa 0,0 l/m 4,8 km/h (1 Bft) W-SW 247 5 min 0,7 UV-I 12,7 C 18,4 C 10,6 km/h (2 Bft)
20.10.2012 12:05 14,9 C 15,4 C 15,1 C 19,7 C 19,7 C 4,8 C 90 % 86 % 100 % 1019,6 hPa 0,0 l/m 5,1 km/h (1 Bft) SW 225 5 min 0,7 UV-I 13,3 C 19,7 C 1,8 km/h (1 Bft)
20.10.2012 12:10 15,5 C 15,4 C 15,3 C 20,0 C 20,0 C 4,5 C 88 % 85 % 100 % 1019,6 hPa 0,0 l/m 4,2 km/h (1 Bft) SW 225 5 min 0,7 UV-I 13,5 C 20,0 C 2,4 km/h (1 Bft)
20.10.2012 12:15 16,0 C 15,4 C 15,4 C 20,7 C 20,7 C 4,7 C 84 % 84 % 100 % 1019,6 hPa 0,0 l/m 4,7 km/h (1 Bft) S 180 5 min 0,8 UV-I 13,3 C 20,7 C 5,6 km/h (1 Bft)
20.10.2012 12:20 16,5 C 15,4 C 15,5 C 21,6 C 21,6 C 5,1 C 81 % 84 % 100 % 1019,2 hPa 0,0 l/m 4,2 km/h (1 Bft) S 180 5 min 0,8 UV-I 13,2 C 21,6 C 2,6 km/h (1 Bft)
20.10.2012 12:25 17,0 C 15,4 C 15,8 C 23,0 C 23,0 C 6,0 C 78 % 83 % 100 % 1019,2 hPa 0,0 l/m 2,3 km/h (1 Bft) SO 135 5 min 0,9 UV-I 13,1 C 23,0 C 2,3 km/h (1 Bft)
20.10.2012 12:30 17,3 C 15,4 C 15,9 C 23,9 C 23,9 C 6,6 C 77 % 82 % 100 % 1019,2 hPa 0,0 l/m 1,4 km/h (1 Bft) SW 225 5 min 0,9 UV-I 13,2 C 23,9 C 2,9 km/h (1 Bft)
20.10.2012 12:35 17,9 C 15,3 C 16,3 C 24,7 C 24,7 C 6,8 C 74 % 81 % 100 % 1019,2 hPa 0,0 l/m 1,3 km/h (1 Bft) O-NO 67 5 min 0,9 UV-I 13,2 C 24,7 C 0,0 km/h (0 Bft)
20.10.2012 12:46 18,5 C 15,4 C 16,4 C 25,6 C 25,6 C 7,1 C 71 % 80 % 100 % 1019,2 hPa 0,0 l/m 1,8 km/h (1 Bft) N 0 11 min 0,9 UV-I 13,1 C 25,6 C 2,3 km/h (1 Bft)
20.10.2012 13:00 19,2 C 15,4 C 17,0 C 26,6 C 26,6 C 7,4 C 68 % 78 % 100 % 1019,3 hPa 0,0 l/m 1,0 km/h (0 Bft) W 270 14 min 0,9 UV-I 13,1 C 26,6 C 2,3 km/h (1 Bft)
20.10.2012 13:05 19,5 C 15,5 C 17,1 C 27,1 C 27,1 C 7,6 C 67 % 78 % 100 % 1019,3 hPa 0,0 l/m 0,6 km/h (0 Bft) W 270 5 min 0,9 UV-I 13,2 C 27,1 C 2,3 km/h (1 Bft)
20.10.2012 13:10 19,5 C 15,5 C 17,2 C 27,2 C 27,2 C 7,7 C 67 % 77 % 100 % 1019,3 hPa 0,0 l/m 1,1 km/h (1 Bft) SW 225 5 min 0,9 UV-I 13,2 C 27,2 C 3,7 km/h (1 Bft)
20.10.2012 13:15 19,9 C 15,5 C 17,5 C 27,4 C 27,4 C 7,5 C 66 % 77 % 100 % 1019,3 hPa 0,0 l/m 1,6 km/h (1 Bft) W-SW 247 5 min 0,9 UV-I 13,4 C 27,4 C 3,1 km/h (1 Bft)
20.10.2012 13:20 19,9 C 15,5 C 17,5 C 27,5 C 27,5 C 7,6 C 65 % 77 % 100 % 1018,9 hPa 0,0 l/m 1,9 km/h (1 Bft) SW 225 5 min 0,9 UV-I 13,1 C 27,5 C 3,9 km/h (1 Bft)
20.10.2012 13:25 20,3 C 15,6 C 17,6 C 27,5 C 27,5 C 7,2 C 65 % 77 % 100 % 1018,9 hPa 0,0 l/m 1,9 km/h (1 Bft) S 180 5 min 1,0 UV-I 13,5 C 27,5 C 3,7 km/h (1 Bft)
20.10.2012 13:30 20,3 C 15,6 C 17,6 C 27,3 C 27,3 C 7,0 C 65 % 76 % 100 % 1018,9 hPa 0,0 l/m 2,6 km/h (1 Bft) SW 225 5 min 0,9 UV-I 13,5 C 27,3 C 4,3 km/h (1 Bft)
20.10.2012 13:35 20,5 C 15,6 C 17,6 C 26,9 C 26,9 C 6,4 C 64 % 76 % 100 % 1018,9 hPa 0,0 l/m 2,3 km/h (1 Bft) W-SW 247 5 min 0,9 UV-I 13,5 C 26,9 C 4,8 km/h (1 Bft)
20.10.2012 13:40 20,5 C 15,6 C 17,7 C 25,6 C 25,6 C 5,1 C 64 % 76 % 100 % 1018,8 hPa 0,0 l/m 2,3 km/h (1 Bft) S-SW 202 5 min 1,0 UV-I 13,5 C 25,6 C 3,5 km/h (1 Bft)
20.10.2012 13:45 20,7 C 15,7 C 17,9 C 24,6 C 24,6 C 3,9 C 62 % 76 % 100 % 1018,8 hPa 0,0 l/m 3,4 km/h (1 Bft) SW 225 5 min 0,9 UV-I 13,2 C 24,6 C 5,8 km/h (2 Bft)
20.10.2012 13:50 20,9 C 15,7 C 17,9 C 24,5 C 24,5 C 3,6 C 62 % 76 % 95 % 1018,8 hPa 0,0 l/m 3,9 km/h (1 Bft) W-NW 292 5 min 0,9 UV-I 13,3 C 24,5 C 3,4 km/h (1 Bft)
20.10.2012 13:55 21,1 C 15,6 C 18,2 C 24,2 C 24,2 C 3,1 C 62 % 75 % 82 % 1018,8 hPa 0,0 l/m 3,9 km/h (1 Bft) SW 225 0 min 0,9 UV-I 13,5 C 24,2 C 5,6 km/h (1 Bft)
20.10.2012 14:00 21,1 C 15,6 C 18,4 C 24,5 C 24,5 C 3,4 C 62 % 75 % 89 % 1018,8 hPa 0,0 l/m 3,7 km/h (1 Bft) W-SW 247 5 min 0,9 UV-I 13,5 C 24,5 C 2,7 km/h (1 Bft)
20.10.2012 14:05 21,2 C 15,7 C 18,4 C 24,7 C 24,7 C 3,5 C 62 % 74 % 92 % 1018,8 hPa 0,0 l/m 3,5 km/h (1 Bft) S 180 5 min 0,9 UV-I 13,6 C 24,7 C 3,4 km/h (1 Bft)
20.10.2012 14:10 21,3 C 15,7 C 18,4 C 24,4 C 24,4 C 3,1 C 61 % 74 % 82 % 1018,8 hPa 0,0 l/m 3,7 km/h (1 Bft) SW 225 0 min 0,8 UV-I 13,5 C 24,4 C 3,5 km/h (1 Bft)
20.10.2012 14:15 21,5 C 15,7 C 18,5 C 24,1 C 24,1 C 2,6 C 61 % 74 % 68 % 1018,8 hPa 0,0 l/m 3,5 km/h (1 Bft) S-SW 202 0 min 0,8 UV-I 13,7 C 24,1 C 3,5 km/h (1 Bft)
20.10.2012 14:20 21,5 C 15,7 C 18,7 C 23,8 C 23,8 C 2,3 C 62 % 75 % 61 % 1018,9 hPa 0,0 l/m 3,1 km/h (1 Bft) SW 225 0 min 0,8 UV-I 13,9 C 23,8 C 3,5 km/h (1 Bft)
20.10.2012 14:25 21,6 C 15,8 C 18,8 C 23,9 C 23,9 C 2,3 C 61 % 74 % 61 % 1018,9 hPa 0,0 l/m 2,9 km/h (1 Bft) W-SW 247 0 min 0,8 UV-I 13,7 C 23,9 C 3,5 km/h (1 Bft)
20.10.2012 14:30 21,7 C 15,8 C 19,1 C 23,6 C 23,6 C 1,9 C 61 % 73 % 50 % 1018,9 hPa 0,0 l/m 2,6 km/h (1 Bft) W 270 0 min 0,8 UV-I 13,8 C 23,6 C 4,2 km/h (1 Bft)
20.10.2012 14:35 21,7 C 15,8 C 19,3 C 23,8 C 23,8 C 2,1 C 60 % 72 % 55 % 1018,9 hPa 0,0 l/m 2,7 km/h (1 Bft) W-SW 247 0 min 0,7 UV-I 13,6 C 23,8 C 5,5 km/h (1 Bft)
20.10.2012 14:40 21,9 C 15,8 C 19,5 C 25,0 C 25,0 C 3,1 C 61 % 73 % 82 % 1018,9 hPa 0,0 l/m 3,9 km/h (1 Bft) W-SW 247 0 min 0,7 UV-I 14,0 C 25,0 C 5,8 km/h (2 Bft)
20.10.2012 14:45 21,9 C 15,9 C 19,5 C 25,7 C 25,7 C 3,8 C 59 % 72 % 100 % 1018,9 hPa 0,0 l/m 4,0 km/h (1 Bft) SW 225 5 min 0,7 UV-I 13,5 C 25,7 C 6,4 km/h (2 Bft)
20.10.2012 14:50 22,0 C 15,9 C 19,7 C 25,6 C 25,6 C 3,6 C 59 % 72 % 95 % 1018,9 hPa 0,0 l/m 3,5 km/h (1 Bft) W-SW 247 5 min 0,7 UV-I 13,6 C 25,6 C 7,9 km/h (2 Bft)
20.10.2012 14:55 22,3 C 15,9 C 19,8 C 25,7 C 25,7 C 3,4 C 59 % 72 % 89 % 1018,9 hPa 0,0 l/m 3,7 km/h (1 Bft) W-SW 247 5 min 0,6 UV-I 13,9 C 25,7 C 5,3 km/h (1 Bft)
20.10.2012 15:00 22,3 C 16,0 C 19,9 C 25,9 C 25,9 C 3,6 C 59 % 71 % 95 % 1019,0 hPa 0,0 l/m 3,9 km/h (1 Bft) SW 225 5 min 0,6 UV-I 13,9 C 25,9 C 5,0 km/h (1 Bft)
20.10.2012 15:05 22,4 C 16,0 C 19,9 C 26,6 C 26,6 C 4,2 C 59 % 71 % 100 % 1019,0 hPa 0,0 l/m 2,3 km/h (1 Bft) W-SW 247 5 min 0,6 UV-I 14,0 C 26,6 C 2,6 km/h (1 Bft)
20.10.2012 15:10 22,7 C 16,0 C 20,0 C 27,0 C 27,0 C 4,3 C 59 % 71 % 100 % 1019,0 hPa 0,0 l/m 2,1 km/h (1 Bft) W 270 5 min 0,5 UV-I 14,3 C 27,0 C 2,7 km/h (1 Bft)
20.10.2012 15:15 23,1 C 16,0 C 20,1 C 27,4 C 27,4 C 4,3 C 58 % 70 % 100 % 1019,0 hPa 0,0 l/m 2,1 km/h (1 Bft) SW 225 5 min 0,5 UV-I 14,4 C 27,4 C 4,3 km/h (1 Bft)
20.10.2012 15:20 23,4 C 16,1 C 20,2 C 27,5 C 27,5 C 4,1 C 57 % 70 % 100 % 1019,1 hPa 0,0 l/m 2,1 km/h (1 Bft) W-SW 247 5 min 0,5 UV-I 14,4 C 27,5 C 3,4 km/h (1 Bft)
20.10.2012 15:25 23,7 C 16,1 C 20,3 C 27,6 C 27,6 C 3,9 C 56 % 70 % 100 % 1019,1 hPa 0,0 l/m 1,4 km/h (1 Bft) W-SW 247 5 min 0,5 UV-I 14,4 C 27,6 C 2,4 km/h (1 Bft)
20.10.2012 15:30 24,1 C 16,1 C 20,4 C 27,9 C 27,9 C 3,8 C 56 % 70 % 100 % 1019,1 hPa 0,0 l/m 1,8 km/h (1 Bft) SW 225 5 min 0,4 UV-I 14,8 C 27,9 C 3,9 km/h (1 Bft)
20.10.2012 15:35 24,5 C 16,1 C 20,6 C 27,9 C 27,9 C 3,4 C 56 % 70 % 89 % 1019,1 hPa 0,0 l/m 2,3 km/h (1 Bft) S 180 5 min 0,4 UV-I 15,1 C 27,9 C 1,6 km/h (1 Bft)
20.10.2012 15:40 24,9 C 16,2 C 20,9 C 28,1 C 28,1 C 3,2 C 54 % 69 % 84 % 1019,0 hPa 0,0 l/m 1,9 km/h (1 Bft) W 270 5 min 0,4 UV-I 14,9 C 28,1 C 1,6 km/h (1 Bft)
20.10.2012 15:45 25,4 C 16,2 C 20,8 C 28,5 C 28,5 C 3,1 C 53 % 69 % 82 % 1019,0 hPa 0,0 l/m 1,0 km/h (0 Bft) W-SW 247 5 min 0,4 UV-I 15,1 C 28,5 C 2,7 km/h (1 Bft)
20.10.2012 15:50 25,8 C 16,2 C 20,8 C 28,6 C 28,6 C 2,8 C 52 % 69 % 74 % 1019,0 hPa 0,0 l/m 1,0 km/h (0 Bft) W 270 0 min 0,3 UV-I 15,2 C 28,6 C 2,3 km/h (1 Bft)
20.10.2012 15:55 26,2 C 16,3 C 20,8 C 28,4 C 28,4 C 2,2 C 50 % 68 % 58 % 1019,0 hPa 0,0 l/m 1,3 km/h (1 Bft) W-SW 247 0 min 0,3 UV-I 14,9 C 28,4 C 0,0 km/h (0 Bft)
20.10.2012 16:00 26,3 C 16,3 C 20,7 C 27,9 C 27,9 C 1,6 C 50 % 68 % 42 % 1019,0 hPa 0,0 l/m 1,9 km/h (1 Bft) S 180 0 min 0,2 UV-I 15,0 C 27,9 C 2,9 km/h (1 Bft)
20.10.2012 16:05 26,3 C 16,3 C 20,7 C 27,8 C 27,8 C 1,5 C 50 % 69 % 39 % 1019,0 hPa 0,0 l/m 1,8 km/h (1 Bft) NW 315 0 min 0,2 UV-I 15,0 C 27,8 C 0,0 km/h (0 Bft)
20.10.2012 16:10 26,2 C 16,3 C 20,8 C 27,7 C 27,7 C 1,5 C 50 % 69 % 39 % 1019,0 hPa 0,0 l/m 1,4 km/h (1 Bft) SW 225 0 min 0,2 UV-I 14,9 C 27,7 C 1,8 km/h (1 Bft)
20.10.2012 16:15 26,5 C 16,4 C 20,5 C 27,5 C 27,5 C 1,0 C 50 % 69 % 26 % 1019,0 hPa 0,0 l/m 1,0 km/h (0 Bft) W-SW 247 0 min 0,1 UV-I 15,2 C 27,5 C 0,0 km/h (0 Bft)
20.10.2012 16:20 26,3 C 16,4 C 20,4 C 26,8 C 26,8 C 0,5 C 49 % 69 % 13 % 1019,5 hPa 0,0 l/m 0,5 km/h (0 Bft) W 270 0 min 0,1 UV-I 14,7 C 26,8 C 2,4 km/h (1 Bft)
20.10.2012 16:25 25,7 C 16,4 C 19,9 C 25,6 C 25,3 C 0,0 C 51 % 69 % 0 % 1019,5 hPa 0,0 l/m 0,3 km/h (0 Bft) N 360 0 min 0,0 UV-I 14,8 C 25,3 C 0,0 km/h (0 Bft)
20.10.2012 16:30 25,3 C 16,4 C 19,6 C 25,1 C 24,6 C 0,0 C 51 % 70 % 0 % 1019,5 hPa 0,0 l/m 0,2 km/h (0 Bft) S 180 0 min 0,0 UV-I 14,4 C 24,6 C 0,0 km/h (0 Bft)
20.10.2012 16:35 24,7 C 16,5 C 19,3 C 24,5 C 24,1 C 0,0 C 53 % 72 % 0 % 1019,5 hPa 0,0 l/m 0,0 km/h (0 Bft) W-SW 247 0 min 0,0 UV-I 14,5 C 24,1 C 0,0 km/h (0 Bft)
20.10.2012 16:40 24,5 C 16,5 C 19,3 C 24,2 C 23,7 C 0,0 C 54 % 72 % 0 % 1018,9 hPa 0,0 l/m 0,0 km/h (0 Bft) SW 225 0 min 0,0 UV-I 14,6 C 23,7 C 0,0 km/h (0 Bft)
20.10.2012 16:45 24,0 C 16,5 C 19,3 C 23,9 C 23,6 C 0,0 C 56 % 73 % 0 % 1018,9 hPa 0,0 l/m 0,0 km/h (0 Bft) W 270 0 min 0,0 UV-I 14,7 C 23,6 C 0,0 km/h (0 Bft)
20.10.2012 16:50 23,8 C 16,5 C 19,1 C 23,8 C 23,7 C 0,0 C 55 % 73 % 0 % 1018,9 hPa 0,0 l/m 0,0 km/h (0 Bft) O-NO 67 0 min 0,0 UV-I 14,2 C 23,7 C 0,0 km/h (0 Bft)
20.10.2012 16:55 23,1 C 16,6 C 18,9 C 23,7 C 23,7 C 0,6 C 57 % 74 % 16 % 1018,9 hPa 0,0 l/m 0,0 km/h (0 Bft) O 90 0 min 0,0 UV-I 14,1 C 23,7 C 0,0 km/h (0 Bft)
20.10.2012 17:00 22,8 C 16,6 C 18,9 C 23,5 C 23,5 C 0,7 C 58 % 75 % 18 % 1019,1 hPa 0,0 l/m 0,0 km/h (0 Bft) O 90 0 min 0,0 UV-I 14,1 C 23,5 C 0,0 km/h (0 Bft)
20.10.2012 17:05 22,3 C 16,6 C 18,8 C 23,8 C 23,8 C 1,5 C 60 % 75 % 39 % 1019,1 hPa 0,0 l/m 0,0 km/h (0 Bft) O 90 5 min 0,0 UV-I 14,2 C 23,8 C 0,0 km/h (0 Bft)
20.10.2012 17:10 22,0 C 16,6 C 18,9 C 24,0 C 24,0 C 2,0 C 61 % 75 % 53 % 1019,1 hPa 0,0 l/m 0,0 km/h (0 Bft) O-NO 67 5 min 0,0 UV-I 14,1 C 24,0 C 0,0 km/h (0 Bft)
20.10.2012 17:15 21,7 C 16,7 C 18,6 C 24,1 C 24,1 C 2,4 C 62 % 76 % 63 % 1019,1 hPa 0,0 l/m 0,0 km/h (0 Bft) O-NO 67 5 min 0,0 UV-I 14,1 C 24,1 C 0,0 km/h (0 Bft)
20.10.2012 17:20 21,5 C 16,7 C 18,5 C 23,6 C 23,6 C 2,1 C 63 % 76 % 55 % 1018,9 hPa 0,0 l/m 0,0 km/h (0 Bft) O-NO 67 5 min 0,0 UV-I 14,2 C 23,6 C 0,0 km/h (0 Bft)
20.10.2012 17:25 21,2 C 16,8 C 18,2 C 22,6 C 22,6 C 1,4 C 64 % 76 % 37 % 1018,9 hPa 0,0 l/m 0,0 km/h (0 Bft) NO 45 5 min 0,0 UV-I 14,1 C 22,6 C 0,0 km/h (0 Bft)
20.10.2012 17:30 21,1 C 16,8 C 18,1 C 22,0 C 22,0 C 0,9 C 64 % 76 % 24 % 1018,9 hPa 0,0 l/m 0,0 km/h (0 Bft) N-NO 22 5 min 0,0 UV-I 14,0 C 22,0 C 0,0 km/h (0 Bft)
20.10.2012 17:35 20,7 C 16,8 C 17,8 C 21,6 C 21,6 C 0,9 C 66 % 78 % 24 % 1018,9 hPa 0,0 l/m 0,0 km/h (0 Bft) N-NO 22 5 min 0,0 UV-I 14,1 C 21,6 C 0,0 km/h (0 Bft)
20.10.2012 17:40 20,4 C 16,9 C 17,6 C 20,8 C 20,8 C 0,4 C 67 % 79 % 11 % 1018,4 hPa 0,0 l/m 0,0 km/h (0 Bft) N-NO 22 0 min 0,0 UV-I 14,1 C 20,8 C 0,0 km/h (0 Bft)
20.10.2012 17:45 20,1 C 16,9 C 17,3 C 20,0 C 19,9 C 0,0 C 68 % 78 % 0 % 1018,4 hPa 0,0 l/m 0,0 km/h (0 Bft) N-NO 22 0 min 0,0 UV-I 14,0 C 19,9 C 0,0 km/h (0 Bft)
20.10.2012 17:50 19,9 C 16,9 C 17,1 C 19,7 C 19,3 C 0,0 C 68 % 79 % 0 % 1018,4 hPa 0,0 l/m 0,0 km/h (0 Bft) N-NO 22 0 min 0,0 UV-I 13,8 C 19,3 C 0,0 km/h (0 Bft)
20.10.2012 17:55 19,5 C 17,0 C 16,7 C 19,3 C 18,8 C 0,0 C 69 % 80 % 0 % 1018,4 hPa 0,0 l/m 0,0 km/h (0 Bft) N-NO 22 0 min 0,0 UV-I 13,7 C 18,8 C 0,0 km/h (0 Bft)
20.10.2012 18:00 19,0 C 17,0 C 16,5 C 18,7 C 18,0 C 0,0 C 70 % 81 % 0 % 1018,3 hPa 0,0 l/m 0,0 km/h (0 Bft) N-NO 22 0 min 0,0 UV-I 13,4 C 18,0 C 0,0 km/h (0 Bft)
20.10.2012 18:05 18,6 C 17,0 C 16,1 C 18,1 C 17,2 C 0,0 C 71 % 81 % 0 % 1018,3 hPa 0,0 l/m 0,0 km/h (0 Bft) N-NO 22 0 min 0,0 UV-I 13,2 C 17,2 C 0,0 km/h (0 Bft)
20.10.2012 18:10 18,4 C 17,0 C 15,9 C 17,9 C 16,8 C 0,0 C 72 % 81 % 0 % 1018,3 hPa 0,0 l/m 0,0 km/h (0 Bft) W 270 0 min 0,0 UV-I 13,3 C 16,8 C 0,0 km/h (0 Bft)
20.10.2012 18:15 18,0 C 17,0 C 15,7 C 17,5 C 16,4 C 0,0 C 74 % 82 % 0 % 1018,3 hPa 0,0 l/m 0,0 km/h (0 Bft) N-NO 22 0 min 0,0 UV-I 13,3 C 16,4 C 0,0 km/h (0 Bft)
20.10.2012 18:20 17,7 C 17,1 C 15,5 C 17,1 C 16,0 C 0,0 C 74 % 82 % 0 % 1018,6 hPa 0,0 l/m 0,0 km/h (0 Bft) N 360 0 min 0,0 UV-I 13,0 C 16,0 C 0,0 km/h (0 Bft)
20.10.2012 18:25 17,3 C 17,1 C 15,2 C 16,7 C 15,5 C 0,0 C 75 % 83 % 0 % 1018,6 hPa 0,0 l/m 0,0 km/h (0 Bft) N-NO 22 0 min 0,0 UV-I 12,8 C 15,5 C 0,0 km/h (0 Bft)
20.10.2012 18:30 17,1 C 17,2 C 15,1 C 16,5 C 15,3 C 0,0 C 76 % 83 % 0 % 1018,6 hPa 0,0 l/m 0,0 km/h (0 Bft) N-NO 22 0 min 0,0 UV-I 12,8 C 15,3 C 0,0 km/h (0 Bft)
20.10.2012 18:35 16,8 C 17,2 C 14,7 C 16,2 C 15,1 C 0,0 C 77 % 83 % 0 % 1018,6 hPa 0,0 l/m 0,0 km/h (0 Bft) N-NO 22 0 min 0,0 UV-I 12,7 C 15,1 C 0,0 km/h (0 Bft)
20.10.2012 18:46 16,0 C 17,3 C 14,3 C 15,6 C 14,7 C 0,0 C 79 % 85 % 0 % 1018,7 hPa 0,0 l/m 0,0 km/h (0 Bft) N 0 0 min 0,0 UV-I 12,4 C 14,7 C 0,0 km/h (0 Bft)
20.10.2012 19:00 15,0 C 17,3 C 13,8 C 14,7 C 14,1 C 0,0 C 80 % 85 % 0 % 1019,3 hPa 0,0 l/m 0,0 km/h (0 Bft) O-NO 67 0 min 0,0 UV-I 11,6 C 14,1 C 0,0 km/h (0 Bft)
20.10.2012 19:05 14,6 C 17,4 C 13,6 C 14,3 C 13,8 C 0,0 C 80 % 86 % 0 % 1019,3 hPa 0,0 l/m 0,0 km/h (0 Bft) O-NO 67 0 min 0,0 UV-I 11,2 C 13,8 C 0,0 km/h (0 Bft)
20.10.2012 19:10 14,4 C 17,4 C 13,4 C 14,2 C 13,7 C 0,0 C 81 % 86 % 0 % 1019,3 hPa 0,0 l/m 0,0 km/h (0 Bft) O 90 0 min 0,0 UV-I 11,2 C 13,7 C 0,0 km/h (0 Bft)
20.10.2012 19:15 14,0 C 17,4 C 13,2 C 13,8 C 13,5 C 0,0 C 81 % 86 % 0 % 1019,3 hPa 0,0 l/m 0,0 km/h (0 Bft) O-NO 67 0 min 0,0 UV-I 10,8 C 13,5 C 0,0 km/h (0 Bft)
20.10.2012 19:20 13,9 C 17,4 C 13,0 C 13,7 C 13,4 C 0,0 C 81 % 87 % 0 % 1019,0 hPa 0,0 l/m 0,0 km/h (0 Bft) O-NO 67 0 min 0,0 UV-I 10,7 C 13,4 C 0,0 km/h (0 Bft)
20.10.2012 19:25 13,6 C 17,4 C 12,9 C 13,4 C 13,1 C 0,0 C 82 % 87 % 0 % 1019,0 hPa 0,0 l/m 0,0 km/h (0 Bft) O 90 0 min 0,0 UV-I 10,6 C 13,1 C 0,0 km/h (0 Bft)
20.10.2012 19:30 13,5 C 17,3 C 12,9 C 13,3 C 13,0 C 0,0 C 82 % 87 % 0 % 1019,0 hPa 0,0 l/m 0,0 km/h (0 Bft) O 90 0 min 0,0 UV-I 10,5 C 13,0 C 0,0 km/h (0 Bft)
20.10.2012 19:35 13,1 C 17,4 C 12,7 C 13,0 C 12,8 C 0,0 C 82 % 88 % 0 % 1019,0 hPa 0,0 l/m 0,0 km/h (0 Bft) O-NO 67 0 min 0,0 UV-I 10,1 C 12,8 C 0,0 km/h (0 Bft)
20.10.2012 19:40 13,1 C 17,3 C 12,7 C 13,0 C 12,7 C 0,0 C 82 % 88 % 0 % 1018,9 hPa 0,0 l/m 0,0 km/h (0 Bft) O-NO 67 0 min 0,0 UV-I 10,1 C 12,7 C 0,0 km/h (0 Bft)
20.10.2012 19:45 12,8 C 17,4 C 12,7 C 12,7 C 12,5 C 0,0 C 82 % 88 % 0 % 1018,9 hPa 0,0 l/m 0,0 km/h (0 Bft) SW 225 0 min 0,0 UV-I 9,8 C 12,5 C 0,0 km/h (0 Bft)
20.10.2012 19:50 12,7 C 17,4 C 12,5 C 12,6 C 12,5 C 0,0 C 83 % 88 % 0 % 1018,9 hPa 0,0 l/m 0,0 km/h (0 Bft) O-NO 67 0 min 0,0 UV-I 9,9 C 12,5 C 0,0 km/h (0 Bft)
20.10.2012 19:55 12,4 C 17,3 C 12,3 C 12,5 C 12,5 C 0,1 C 84 % 88 % 0 % 1018,9 hPa 0,0 l/m 0,0 km/h (0 Bft) O-NO 67 0 min 0,0 UV-I 9,8 C 12,5 C 0,0 km/h (0 Bft)
20.10.2012 20:00 12,4 C 17,3 C 12,3 C 12,4 C 12,3 C 0,0 C 84 % 88 % 0 % 1019,1 hPa 0,0 l/m 0,0 km/h (0 Bft) S-SO 157 0 min 0,0 UV-I 9,8 C 12,3 C 0,0 km/h (0 Bft)
20.10.2012 20:05 12,1 C 17,3 C 12,0 C 12,1 C 12,1 C 0,0 C 84 % 88 % 0 % 1019,1 hPa 0,0 l/m 0,0 km/h (0 Bft) O-SO 112 0 min 0,0 UV-I 9,5 C 12,1 C 0,0 km/h (0 Bft)
20.10.2012 20:10 12,1 C 17,3 C 12,0 C 12,0 C 11,8 C 0,0 C 84 % 89 % 0 % 1019,1 hPa 0,0 l/m 0,0 km/h (0 Bft) O-SO 112 0 min 0,0 UV-I 9,5 C 11,8 C 0,0 km/h (0 Bft)
20.10.2012 20:15 11,9 C 17,4 C 12,0 C 11,8 C 11,7 C 0,0 C 84 % 89 % 0 % 1019,1 hPa 0,0 l/m 0,0 km/h (0 Bft) O-SO 112 0 min 0,0 UV-I 9,3 C 11,7 C 0,0 km/h (0 Bft)
20.10.2012 20:20 11,7 C 17,5 C 11,8 C 11,7 C 11,6 C 0,0 C 84 % 88 % 0 % 1018,9 hPa 0,0 l/m 0,0 km/h (0 Bft) O-NO 67 0 min 0,0 UV-I 9,1 C 11,6 C 0,0 km/h (0 Bft)
20.10.2012 20:25 11,5 C 17,4 C 11,7 C 11,5 C 11,5 C 0,0 C 85 % 89 % 0 % 1018,9 hPa 0,0 l/m 0,0 km/h (0 Bft) O-NO 67 0 min 0,0 UV-I 9,1 C 11,5 C 0,0 km/h (0 Bft)
20.10.2012 20:30 11,4 C 17,5 C 11,8 C 11,5 C 11,5 C 0,1 C 85 % 89 % 0 % 1018,9 hPa 0,0 l/m 0,0 km/h (0 Bft) O-NO 67 0 min 0,0 UV-I 9,0 C 11,5 C 0,0 km/h (0 Bft)
20.10.2012 20:35 11,3 C 17,5 C 11,5 C 11,4 C 11,4 C 0,1 C 85 % 89 % 0 % 1018,9 hPa 0,0 l/m 0,0 km/h (0 Bft) O 90 0 min 0,0 UV-I 8,9 C 11,4 C 0,0 km/h (0 Bft)
20.10.2012 20:40 11,2 C 17,4 C 11,5 C 11,4 C 11,4 C 0,2 C 85 % 89 % 0 % 1019,1 hPa 0,0 l/m 0,0 km/h (0 Bft) O-NO 67 0 min 0,0 UV-I 8,8 C 11,4 C 0,0 km/h (0 Bft)
20.10.2012 20:45 11,1 C 17,5 C 11,3 C 11,3 C 11,3 C 0,2 C 86 % 89 % 0 % 1019,1 hPa 0,0 l/m 0,0 km/h (0 Bft) O-NO 67 0 min 0,0 UV-I 8,8 C 11,3 C 0,0 km/h (0 Bft)
20.10.2012 20:50 11,1 C 17,5 C 11,2 C 11,2 C 11,2 C 0,1 C 86 % 89 % 0 % 1019,1 hPa 0,0 l/m 0,0 km/h (0 Bft) O-NO 67 0 min 0,0 UV-I 8,8 C 11,2 C 0,0 km/h (0 Bft)
20.10.2012 20:55 10,9 C 17,5 C 11,1 C 11,1 C 11,1 C 0,2 C 86 % 89 % 0 % 1019,1 hPa 0,0 l/m 0,0 km/h (0 Bft) O-NO 67 0 min 0,0 UV-I 8,7 C 11,1 C 0,0 km/h (0 Bft)
20.10.2012 21:00 10,8 C 17,5 C 11,1 C 10,9 C 10,9 C 0,1 C 86 % 89 % 0 % 1020,2 hPa 0,0 l/m 0,0 km/h (0 Bft) O-NO 67 0 min 0,0 UV-I 8,6 C 10,9 C 0,0 km/h (0 Bft)
20.10.2012 21:05 10,7 C 17,4 C 10,9 C 10,9 C 10,9 C 0,2 C 86 % 89 % 0 % 1020,2 hPa 0,0 l/m 0,0 km/h (0 Bft) O-NO 67 0 min 0,0 UV-I 8,5 C 10,9 C 0,0 km/h (0 Bft)
20.10.2012 21:10 10,7 C 17,5 C 10,9 C 10,8 C 10,8 C 0,1 C 86 % 89 % 0 % 1020,2 hPa 0,0 l/m 0,0 km/h (0 Bft) O 90 0 min 0,0 UV-I 8,5 C 10,8 C 0,0 km/h (0 Bft)
20.10.2012 21:15 10,6 C 17,5 C 10,9 C 10,8 C 10,8 C 0,2 C 87 % 90 % 0 % 1020,2 hPa 0,0 l/m 0,0 km/h (0 Bft) O-NO 67 0 min 0,0 UV-I 8,5 C 10,8 C 0,0 km/h (0 Bft)
20.10.2012 21:20 10,5 C 17,5 C 10,8 C 10,7 C 10,7 C 0,2 C 87 % 90 % 0 % 1019,1 hPa 0,0 l/m 0,0 km/h (0 Bft) O-NO 67 0 min 0,0 UV-I 8,4 C 10,7 C 0,0 km/h (0 Bft)
20.10.2012 21:25 10,4 C 17,4 C 10,9 C 10,5 C 10,5 C 0,1 C 87 % 90 % 0 % 1019,1 hPa 0,0 l/m 0,0 km/h (0 Bft) W-SW 247 0 min 0,0 UV-I 8,3 C 10,5 C 0,0 km/h (0 Bft)
20.10.2012 21:30 10,3 C 17,4 C 10,9 C 10,5 C 10,5 C 0,2 C 87 % 90 % 0 % 1019,1 hPa 0,0 l/m 0,2 km/h (0 Bft) SW 225 0 min 0,0 UV-I 8,2 C 10,5 C 0,0 km/h (0 Bft)
20.10.2012 21:35 10,2 C 17,5 C 10,8 C 10,4 C 10,4 C 0,2 C 87 % 90 % 0 % 1019,1 hPa 0,0 l/m 0,2 km/h (0 Bft) O-SO 112 0 min 0,0 UV-I 8,1 C 10,4 C 0,0 km/h (0 Bft)
20.10.2012 21:40 10,1 C 17,4 C 10,7 C 10,4 C 10,4 C 0,3 C 87 % 90 % 0 % 1019,1 hPa 0,0 l/m 0,0 km/h (0 Bft) O 90 0 min 0,0 UV-I 8,0 C 10,4 C 0,0 km/h (0 Bft)
20.10.2012 21:45 10,0 C 17,4 C 10,5 C 10,2 C 10,2 C 0,2 C 87 % 90 % 0 % 1019,1 hPa 0,0 l/m 0,0 km/h (0 Bft) O 90 0 min 0,0 UV-I 7,9 C 10,2 C 0,0 km/h (0 Bft)
20.10.2012 21:47 10,0 C 17,4 C 10,5 C 10,2 C 10,2 C 0,2 C 87 % 90 % 0 % 1019,1 hPa 0,0 l/m 0,0 km/h (0 Bft) O 90 0 min 0,0 UV-I 7,9 C 10,2 C 0,0 km/h (0 Bft)
20.10.2012 21:50 10,0 C 17,4 C 10,5 C 10,2 C 10,2 C 0,2 C 87 % 90 % 0 % 1019,1 hPa 0,0 l/m 0,0 km/h (0 Bft) O 90 0 min 0,0 UV-I 7,9 C 10,2 C 0,0 km/h (0 Bft)
20.10.2012 21:55 9,9 C 17,4 C 10,5 C 10,2 C 10,2 C 0,3 C 87 % 90 % 0 % 1019,1 hPa 0,0 l/m 0,0 km/h (0 Bft) O-NO 67 0 min 0,0 UV-I 7,8 C 10,2 C 0,0 km/h (0 Bft)
20.10.2012 22:00 10,0 C 17,5 C 10,5 C 10,3 C 10,3 C 0,3 C 88 % 90 % 0 % 1019,1 hPa 0,0 l/m 0,0 km/h (0 Bft) O-NO 67 0 min 0,0 UV-I 8,1 C 10,3 C 0,0 km/h (0 Bft)
20.10.2012 22:05 9,9 C 17,5 C 10,4 C 10,4 C 10,4 C 0,5 C 88 % 90 % 0 % 1019,2 hPa 0,0 l/m 0,0 km/h (0 Bft) O-NO 67 0 min 0,0 UV-I 8,0 C 10,4 C 0,0 km/h (0 Bft)
20.10.2012 22:10 9,9 C 17,4 C 10,3 C 10,4 C 10,4 C 0,5 C 88 % 90 % 0 % 1019,2 hPa 0,0 l/m 0,0 km/h (0 Bft) O-NO 67 0 min 0,0 UV-I 8,0 C 10,4 C 0,0 km/h (0 Bft)
20.10.2012 22:15 9,9 C 17,4 C 10,4 C 10,2 C 10,2 C 0,3 C 88 % 91 % 0 % 1019,2 hPa 0,0 l/m 0,0 km/h (0 Bft) W-SW 247 0 min 0,0 UV-I 8,0 C 10,2 C 0,0 km/h (0 Bft)
20.10.2012 22:20 9,6 C 17,4 C 10,4 C 10,1 C 10,1 C 0,5 C 88 % 91 % 0 % 1019,2 hPa 0,0 l/m 0,0 km/h (0 Bft) W-SW 247 0 min 0,0 UV-I 7,7 C 10,1 C 0,0 km/h (0 Bft)
20.10.2012 22:25 9,6 C 17,4 C 10,5 C 9,9 C 9,9 C 0,3 C 88 % 91 % 0 % 1019,4 hPa 0,0 l/m 0,0 km/h (0 Bft) SW 225 0 min 0,0 UV-I 7,7 C 9,9 C 0,0 km/h (0 Bft)
20.10.2012 22:30 9,5 C 17,4 C 10,4 C 9,9 C 9,9 C 0,4 C 88 % 91 % 0 % 1019,4 hPa 0,0 l/m 0,0 km/h (0 Bft) W-SW 247 0 min 0,0 UV-I 7,6 C 9,9 C 0,0 km/h (0 Bft)
20.10.2012 22:35 9,4 C 17,4 C 10,2 C 9,8 C 9,8 C 0,4 C 88 % 91 % 0 % 1019,4 hPa 0,0 l/m 0,0 km/h (0 Bft) W-SW 247 0 min 0,0 UV-I 7,5 C 9,8 C 0,0 km/h (0 Bft)
20.10.2012 22:40 9,2 C 17,3 C 10,3 C 9,6 C 9,6 C 0,4 C 87 % 91 % 0 % 1019,4 hPa 0,0 l/m 0,0 km/h (0 Bft) W 270 0 min 0,0 UV-I 7,2 C 9,6 C 0,0 km/h (0 Bft)
20.10.2012 22:45 9,2 C 17,4 C 10,2 C 9,6 C 9,6 C 0,4 C 87 % 91 % 0 % 1019,2 hPa 0,0 l/m 0,0 km/h (0 Bft) W-SW 247 0 min 0,0 UV-I 7,2 C 9,6 C 0,0 km/h (0 Bft)
20.10.2012 22:50 9,1 C 17,3 C 10,1 C 9,4 C 9,4 C 0,3 C 87 % 91 % 0 % 1019,2 hPa 0,0 l/m 0,0 km/h (0 Bft) W-SW 247 0 min 0,0 UV-I 7,1 C 9,4 C 0,0 km/h (0 Bft)
20.10.2012 22:55 9,1 C 17,4 C 10,1 C 9,4 C 9,4 C 0,3 C 88 % 91 % 0 % 1019,2 hPa 0,0 l/m 0,0 km/h (0 Bft) W-SW 247 0 min 0,0 UV-I 7,2 C 9,4 C 0,0 km/h (0 Bft)
20.10.2012 23:00 8,9 C 17,4 C 10,0 C 9,3 C 9,3 C 0,4 C 88 % 91 % 0 % 1019,2 hPa 0,0 l/m 0,0 km/h (0 Bft) W-SW 247 0 min 0,0 UV-I 7,0 C 9,3 C 0,0 km/h (0 Bft)
20.10.2012 23:05 8,8 C 17,4 C 9,8 C 9,2 C 9,2 C 0,4 C 88 % 90 % 0 % 1019,2 hPa 0,0 l/m 0,0 km/h (0 Bft) W-SW 247 0 min 0,0 UV-I 6,9 C 9,2 C 0,0 km/h (0 Bft)
20.10.2012 23:10 8,8 C 17,3 C 9,7 C 9,1 C 9,1 C 0,3 C 88 % 90 % 0 % 1019,2 hPa 0,0 l/m 0,0 km/h (0 Bft) W-SW 247 0 min 0,0 UV-I 6,9 C 9,1 C 0,0 km/h (0 Bft)
20.10.2012 23:15 8,7 C 17,3 C 9,9 C 9,1 C 9,1 C 0,4 C 88 % 91 % 0 % 1019,2 hPa 0,0 l/m 0,0 km/h (0 Bft) W-SW 247 0 min 0,0 UV-I 6,8 C 9,1 C 0,0 km/h (0 Bft)
20.10.2012 23:20 8,6 C 17,3 C 9,6 C 9,1 C 9,1 C 0,5 C 88 % 90 % 0 % 1019,2 hPa 0,0 l/m 0,0 km/h (0 Bft) W 270 0 min 0,0 UV-I 6,7 C 9,1 C 0,0 km/h (0 Bft)
20.10.2012 23:25 8,7 C 17,3 C 9,5 C 9,1 C 9,1 C 0,4 C 88 % 90 % 0 % 1019,7 hPa 0,0 l/m 0,0 km/h (0 Bft) W-SW 247 0 min 0,0 UV-I 6,8 C 9,1 C 0,0 km/h (0 Bft)
20.10.2012 23:30 8,5 C 17,3 C 9,5 C 9,0 C 9,0 C 0,5 C 88 % 91 % 0 % 1019,7 hPa 0,0 l/m 0,0 km/h (0 Bft) SW 225 0 min 0,0 UV-I 6,6 C 9,0 C 0,0 km/h (0 Bft)
20.10.2012 23:35 8,4 C 17,3 C 9,5 C 8,9 C 8,9 C 0,5 C 88 % 91 % 0 % 1019,7 hPa 0,0 l/m 0,0 km/h (0 Bft) W-SW 247 0 min 0,0 UV-I 6,5 C 8,9 C 0,0 km/h (0 Bft)
20.10.2012 23:40 8,3 C 17,3 C 9,4 C 8,9 C 8,9 C 0,6 C 88 % 91 % 0 % 1019,7 hPa 0,0 l/m 0,0 km/h (0 Bft) W-SW 247 0 min 0,0 UV-I 6,4 C 8,9 C 0,0 km/h (0 Bft)
20.10.2012 23:45 8,2 C 17,3 C 9,5 C 8,8 C 8,8 C 0,6 C 88 % 91 % 0 % 1018,8 hPa 0,0 l/m 0,0 km/h (0 Bft) W-SW 247 0 min 0,0 UV-I 6,3 C 8,8 C 0,0 km/h (0 Bft)
20.10.2012 23:50 8,1 C 17,3 C 9,4 C 8,6 C 8,6 C 0,5 C 88 % 91 % 0 % 1018,8 hPa 0,0 l/m 0,0 km/h (0 Bft) W-SW 247 0 min 0,0 UV-I 6,2 C 8,6 C 0,0 km/h (0 Bft)
20.10.2012 23:55 8,0 C 17,3 C 9,3 C 8,5 C 8,5 C 0,5 C 88 % 91 % 0 % 1018,8 hPa 0,0 l/m 0,0 km/h (0 Bft) W 270 0 min 0,0 UV-I 6,1 C 8,5 C 0,0 km/h (0 Bft)
_ Min-Zeit 08:00 10:10 07:45 07:05 07:10 02:30 16:20 15:55 00:00 00:20 - 00:00 - - - 00:00 08:00 07:10 00:00
Minimum _ 2,9 C 15,3 C 4,6 C 3,2 C 3,1 C 0,0 C 49 % 68 % 0 % 1016,4 hPa - 0,0 km/h (0 Bft) - - - 0,0 UV-I 1,4 C 3,1 C 0,0 km/h (0 Bft)
_ Max-Zeit 16:15 20:20 15:40 15:50 15:50 13:10 09:55 09:00 11:20 21:00 00:00 12:05 - - 13:00 13:25 16:15 15:50 12:00
Maximum _ 26,5 C 17,5 C 20,9 C 28,6 C 28,6 C 7,7 C 93 % 93 % 100 % 1020,2 hPa 0,0 l/m 5,1 km/h
SW (1 Bft)
- - 14 min 1,0 UV-I 15,2 C 28,6 C 10,6 km/h
W-SW (2 Bft)
Durchschnitt _ 11,1 C 16,4 C 11,0 C 12,5 C 12,4 C 1,4 C 82 % 86 % 27 % 1018,6 hPa #0,0 l/m 0,5 km/h (0 Bft) SW - #4:40 h 0,6 UV-I 7,8 C 12,4 C 0,7 km/h (0 Bft)
2012 www.wetterstation-wechselburg.de